Time;durP1;ratioP1;P1;durP2;ratioP2;P2;SDS_P1;SDS_P2;PMS_P1;PMS_P2;Temp;Humidity;BMP_temperature;BMP_pressure;BME280_temperature;BME280_humidity;BME280_pressure;Samples;Min_cycle;Max_cycle;Signal;HPM_P1;HPM_P2
2023/08/27 00:01:28;;;;;;;0.00;0.00;;;;;;;13.40;100.00;96105.44;4838842;29;20057;-80
2023/08/27 00:04:14;;;;;;;0.10;0.10;;;;;;;13.53;100.00;96096.75;4841167;29;20130;-80
2023/08/27 00:07:00;;;;;;;0.10;0.10;;;;;;;13.50;100.00;96093.81;4840405;29;20048;-80
2023/08/27 00:09:46;;;;;;;0.10;0.10;;;;;;;13.54;100.00;96079.56;4840191;29;20084;-80
2023/08/27 00:12:32;;;;;;;0.10;0.10;;;;;;;13.75;100.00;96069.50;4840652;29;20054;-80
2023/08/27 00:15:18;;;;;;;0.00;0.00;;;;;;;13.98;100.00;96059.94;4840870;29;20041;-81
2023/08/27 00:18:04;;;;;;;0.10;0.10;;;;;;;13.90;100.00;96036.31;4841345;29;20128;-80
2023/08/27 00:20:51;;;;;;;0.10;0.10;;;;;;;13.99;100.00;96037.34;4839676;29;20495;-80
2023/08/27 00:23:39;;;;;;;0.10;0.10;;;;;;;13.86;100.00;96046.84;4840226;29;20059;-80
2023/08/27 00:26:25;;;;;;;0.10;0.10;;;;;;;13.69;100.00;96049.09;4841026;29;20085;-80
2023/08/27 00:29:11;;;;;;;0.00;0.00;;;;;;;13.84;100.00;96061.66;4840887;29;20053;-81
2023/08/27 00:31:57;;;;;;;0.10;0.10;;;;;;;13.96;100.00;96058.63;4839286;29;20088;-80
2023/08/27 00:34:43;;;;;;;0.10;0.10;;;;;;;14.07;100.00;96057.47;4838793;29;20053;-80
2023/08/27 00:37:29;;;;;;;0.10;0.10;;;;;;;14.06;100.00;96042.41;4841252;29;20462;-80
2023/08/27 00:40:15;;;;;;;0.10;0.10;;;;;;;14.02;100.00;96041.38;4817741;29;20045;-80
2023/08/27 00:43:02;;;;;;;0.10;0.10;;;;;;;13.83;100.00;96038.53;4843011;29;20125;-80
2023/08/27 00:45:48;;;;;;;0.10;0.10;;;;;;;13.73;100.00;96039.41;4843757;29;20319;-80
2023/08/27 00:48:34;;;;;;;0.00;0.00;;;;;;;13.77;100.00;96045.00;4841986;29;20053;-80
2023/08/27 00:51:21;;;;;;;0.10;0.10;;;;;;;13.70;100.00;96025.72;4829762;29;20519;-81
2023/08/27 00:54:07;;;;;;;0.00;0.00;;;;;;;13.69;100.00;96034.84;4841885;29;20478;-79
2023/08/27 00:56:53;;;;;;;0.10;0.10;;;;;;;13.45;100.00;96023.97;4826285;29;20045;-80
2023/08/27 00:59:39;;;;;;;0.10;0.10;;;;;;;13.17;100.00;96020.03;4830879;29;20782;-80
2023/08/27 01:02:25;;;;;;;0.10;0.10;;;;;;;13.25;100.00;96035.63;4823263;29;20049;-81
2023/08/27 01:05:12;;;;;;;0.10;0.10;;;;;;;13.02;100.00;96053.94;4842317;29;20045;-79
2023/08/27 01:08:09;;;;;;;0.00;0.00;;;;;;;13.01;100.00;96052.31;4844459;29;20716;-79
2023/08/27 01:11:12;;;;;;;0.10;0.10;;;;;;;13.31;100.00;96047.97;4843805;29;20060;-80
2023/08/27 01:14:10;;;;;;;0.10;0.10;;;;;;;13.38;100.00;96048.44;4844046;29;20073;-80
2023/08/27 01:16:58;;;;;;;0.00;0.00;;;;;;;13.55;100.00;96048.91;4842577;29;20053;-79
2023/08/27 01:19:44;;;;;;;0.10;0.10;;;;;;;13.61;100.00;96050.47;4843086;29;20048;-80
2023/08/27 01:22:30;;;;;;;0.10;0.10;;;;;;;13.70;100.00;96047.22;4842163;29;20247;-80
2023/08/27 01:25:20;;;;;;;0.08;0.08;;;;;;;13.84;100.00;96053.56;4843279;29;20327;-80
2023/08/27 01:28:18;;;;;;;0.10;0.10;;;;;;;13.71;100.00;96063.06;4842324;29;21002;-80
2023/08/27 01:31:11;;;;;;;0.00;0.00;;;;;;;13.68;100.00;96063.63;4842534;29;20052;-81
2023/08/27 01:34:00;;;;;;;0.10;0.10;;;;;;;13.32;100.00;96063.00;4840737;29;20655;-79
2023/08/27 01:36:46;;;;;;;0.10;0.10;;;;;;;13.16;100.00;96053.38;4842422;29;20045;-79
2023/08/27 01:39:31;;;;;;;0.10;0.10;;;;;;;13.26;100.00;96034.53;4841619;29;20044;-80
2023/08/27 01:42:17;;;;;;;0.10;0.10;;;;;;;13.26;100.00;96029.16;4817828;29;20080;-80
2023/08/27 01:45:06;;;;;;;0.10;0.10;;;;;;;13.29;100.00;96017.84;4841931;29;20659;-80
2023/08/27 01:47:52;;;;;;;0.00;0.00;;;;;;;13.19;100.00;96017.88;4842929;29;20496;-81
2023/08/27 01:50:37;;;;;;;0.10;0.10;;;;;;;13.25;100.00;96011.44;4840036;29;20045;-80
2023/08/27 01:53:23;;;;;;;0.10;0.10;;;;;;;13.30;100.00;96017.56;4842901;29;20049;-81
2023/08/27 01:56:09;;;;;;;0.10;0.10;;;;;;;13.43;100.00;96012.69;4843460;29;20133;-80
2023/08/27 01:58:55;;;;;;;0.00;0.00;;;;;;;13.33;100.00;95995.53;4843217;29;20042;-79
2023/08/27 02:01:41;;;;;;;0.10;0.10;;;;;;;13.21;100.00;95992.38;4842071;29;20053;-80
2023/08/27 02:04:27;;;;;;;0.10;0.10;;;;;;;13.01;100.00;95993.25;4840757;29;20049;-79
2023/08/27 02:07:13;;;;;;;0.00;0.00;;;;;;;12.79;100.00;95995.47;4842795;29;20037;-80
2023/08/27 02:09:59;;;;;;;0.10;0.10;;;;;;;12.91;100.00;95982.53;4829470;29;20041;-81
2023/08/27 02:12:44;;;;;;;0.20;0.20;;;;;;;13.09;100.00;95981.94;4829106;29;20523;-80
2023/08/27 02:15:30;;;;;;;0.05;0.05;;;;;;;13.12;100.00;95991.31;4827718;29;20484;-80
2023/08/27 02:18:16;;;;;;;0.10;0.10;;;;;;;13.12;100.00;96004.75;4841025;29;20737;-80
2023/08/27 02:21:02;;;;;;;0.00;0.00;;;;;;;13.21;100.00;95995.06;4841616;29;20041;-80
2023/08/27 02:23:48;;;;;;;0.10;0.10;;;;;;;13.30;100.00;95992.59;4839154;29;20083;-80
2023/08/27 02:26:34;;;;;;;0.10;0.10;;;;;;;13.06;100.00;95998.56;4829504;29;20137;-80
2023/08/27 02:29:20;;;;;;;0.10;0.10;;;;;;;12.98;100.00;96009.09;4829737;29;20087;-80
2023/08/27 02:32:06;;;;;;;0.10;0.10;;;;;;;13.10;100.00;96005.03;4840999;29;20647;-79
2023/08/27 02:34:52;;;;;;;0.10;0.10;;;;;;;13.04;100.00;95995.38;4841614;29;20048;-80
2023/08/27 02:37:37;;;;;;;0.10;0.10;;;;;;;13.15;100.00;95989.94;4829138;29;20053;-80
2023/08/27 02:40:23;;;;;;;0.00;0.00;;;;;;;13.18;100.00;95984.84;4843176;29;20122;-80
2023/08/27 02:43:09;;;;;;;0.00;0.00;;;;;;;13.14;100.00;95978.41;4842744;29;20050;-80
2023/08/27 02:45:55;;;;;;;0.10;0.10;;;;;;;13.16;100.00;95975.47;4840070;29;20049;-80
2023/08/27 02:48:41;;;;;;;0.10;0.10;;;;;;;13.15;100.00;95976.50;4840825;29;20045;-81
2023/08/27 02:51:27;;;;;;;0.10;0.10;;;;;;;13.14;100.00;95988.34;4837596;29;20049;-80
2023/08/27 02:54:12;;;;;;;0.10;0.10;;;;;;;13.09;100.00;95986.50;4842284;29;20129;-81
2023/08/27 02:56:58;;;;;;;0.10;0.10;;;;;;;13.14;100.00;95986.47;4839602;29;20559;-80
2023/08/27 02:59:44;;;;;;;0.10;0.10;;;;;;;13.15;100.00;95974.66;4839732;29;20514;-81
2023/08/27 03:02:30;;;;;;;0.10;0.10;;;;;;;12.96;100.00;95976.34;4828353;29;20273;-80
2023/08/27 03:05:17;;;;;;;0.10;0.10;;;;;;;12.88;100.00;95993.03;4826683;29;20745;-80
2023/08/27 03:08:03;;;;;;;0.10;0.10;;;;;;;12.69;100.00;96003.56;4838960;29;20146;-81
2023/08/27 03:10:49;;;;;;;0.10;0.10;;;;;;;12.71;100.00;95994.16;4841155;29;20134;-80
2023/08/27 03:13:35;;;;;;;0.10;0.10;;;;;;;12.63;100.00;96004.63;4830366;29;20057;-80
2023/08/27 03:16:21;;;;;;;0.10;0.10;;;;;;;12.66;100.00;96012.94;4839947;29;20061;-80
2023/08/27 03:19:07;;;;;;;0.10;0.10;;;;;;;12.74;100.00;96007.00;4841046;29;20053;-80
2023/08/27 03:21:53;;;;;;;0.10;0.10;;;;;;;12.71;100.00;96004.88;4840337;29;20049;-80
2023/08/27 03:24:39;;;;;;;0.10;0.10;;;;;;;12.67;100.00;96000.31;4841851;29;20769;-80
2023/08/27 03:27:25;;;;;;;0.03;0.03;;;;;;;12.67;100.00;96001.13;4841190;29;20686;-80
2023/08/27 03:30:11;;;;;;;0.10;0.10;;;;;;;12.67;100.00;95993.06;4838097;29;20049;-80
2023/08/27 03:32:57;;;;;;;0.10;0.10;;;;;;;12.63;100.00;95988.53;4828158;29;20049;-80
2023/08/27 03:35:51;;;;;;;0.10;0.10;;;;;;;12.70;100.00;95984.50;4841608;29;20748;-80
2023/08/27 03:38:37;;;;;;;0.10;0.10;;;;;;;12.65;100.00;95978.31;4839610;29;20132;-80
2023/08/27 03:41:23;;;;;;;0.10;0.10;;;;;;;12.73;100.00;95967.03;4840627;29;20038;-80
2023/08/27 03:44:08;;;;;;;0.10;0.10;;;;;;;12.82;100.00;95960.00;4839300;29;20049;-80
2023/08/27 03:46:54;;;;;;;0.10;0.10;;;;;;;12.76;100.00;95950.34;4827292;29;20049;-80
2023/08/27 03:49:40;;;;;;;0.10;0.10;;;;;;;12.79;100.00;95960.56;4840109;29;20601;-80
2023/08/27 03:52:27;;;;;;;0.05;0.05;;;;;;;12.62;100.00;95968.94;4842408;29;20049;-80
2023/08/27 03:55:13;;;;;;;0.10;0.10;;;;;;;12.58;100.00;95970.56;4839440;29;20869;-80
2023/08/27 03:57:58;;;;;;;0.10;0.10;;;;;;;12.65;100.00;95954.16;4830707;29;20050;-80
2023/08/27 04:00:48;;;;;;;0.10;0.10;;;;;;;12.76;100.00;95964.63;4826267;29;20057;-80
2023/08/27 04:03:34;;;;;;;0.10;0.10;;;;;;;12.65;100.00;95960.34;4841909;29;20046;-80
2023/08/27 04:06:20;;;;;;;0.10;0.10;;;;;;;12.66;100.00;95951.19;4841575;29;20046;-80
2023/08/27 04:09:05;;;;;;;0.00;0.00;;;;;;;12.61;100.00;95947.75;4842509;29;20873;-80
2023/08/27 04:11:51;;;;;;;0.10;0.10;;;;;;;12.67;100.00;95949.31;4844356;29;20049;-80
2023/08/27 04:14:37;;;;;;;0.10;0.10;;;;;;;12.69;100.00;95933.75;4844665;29;20045;-80
2023/08/27 04:17:23;;;;;;;0.10;0.10;;;;;;;12.69;100.00;95936.44;4846207;29;20048;-80
2023/08/27 04:20:09;;;;;;;0.10;0.10;;;;;;;12.70;100.00;95935.38;4849325;29;20049;-80
2023/08/27 04:22:55;;;;;;;0.10;0.10;;;;;;;12.58;100.00;95946.41;4847155;29;20201;-81
2023/08/27 04:25:45;;;;;;;0.00;0.00;;;;;;;12.68;100.00;95937.50;4843942;29;20049;-80
2023/08/27 04:28:32;;;;;;;0.10;0.10;;;;;;;12.67;100.00;95934.00;4845014;29;20460;-80
2023/08/27 04:31:18;;;;;;;0.10;0.10;;;;;;;12.59;100.00;95939.16;4844557;29;20053;-81
2023/08/27 04:34:04;;;;;;;0.00;0.00;;;;;;;12.55;100.00;95945.06;4845849;29;20048;-82
2023/08/27 04:36:50;;;;;;;0.10;0.10;;;;;;;12.56;100.00;95940.50;4844957;29;20049;-80
2023/08/27 04:39:36;;;;;;;0.05;0.05;;;;;;;12.51;100.00;95943.19;4844861;29;20054;-81
2023/08/27 04:42:22;;;;;;;0.10;0.10;;;;;;;12.51;100.00;95944.00;4830456;29;20114;-80
2023/08/27 04:45:10;;;;;;;0.10;0.10;;;;;;;12.51;100.00;95927.91;4843522;29;20122;-81
2023/08/27 04:47:56;;;;;;;0.10;0.10;;;;;;;12.52;100.00;95931.38;4841769;29;20049;-81
2023/08/27 04:50:45;;;;;;;0.10;0.10;;;;;;;12.54;100.00;95940.78;4841383;29;20114;-81
2023/08/27 04:53:31;;;;;;;0.10;0.10;;;;;;;12.52;100.00;95956.34;4843189;29;20430;-80
2023/08/27 04:56:17;;;;;;;0.10;0.10;;;;;;;12.38;100.00;95947.28;4842157;29;20054;-81
2023/08/27 04:59:02;;;;;;;0.00;0.00;;;;;;;12.34;100.00;95954.25;4831258;29;20045;-81
2023/08/27 05:01:48;;;;;;;0.10;0.10;;;;;;;12.32;100.00;95945.66;4842153;29;20049;-81
2023/08/27 05:04:34;;;;;;;0.10;0.10;;;;;;;12.36;100.00;95952.09;4843202;29;20050;-81
2023/08/27 05:07:20;;;;;;;0.10;0.10;;;;;;;12.45;100.00;95955.84;4830593;29;20053;-81
2023/08/27 05:10:07;;;;;;;0.10;0.10;;;;;;;12.57;100.00;95946.69;4843787;29;20046;-80
2023/08/27 05:12:54;;;;;;;0.10;0.10;;;;;;;12.73;100.00;95950.91;4840753;29;20595;-81
2023/08/27 05:15:40;;;;;;;0.10;0.10;;;;;;;12.88;100.00;95948.19;4843046;29;20794;-81
2023/08/27 05:18:27;;;;;;;0.10;0.10;;;;;;;13.00;100.00;95940.63;4845689;29;20845;-81
2023/08/27 05:21:13;;;;;;;0.10;0.10;;;;;;;13.01;100.00;95942.22;4844178;29;20062;-81
2023/08/27 05:23:59;;;;;;;0.10;0.10;;;;;;;13.01;100.00;95952.97;4842240;29;20053;-81
2023/08/27 05:26:45;;;;;;;0.10;0.10;;;;;;;13.01;100.00;95946.78;4843336;29;20132;-81
2023/08/27 05:29:31;;;;;;;0.10;0.10;;;;;;;13.06;100.00;95952.91;4845349;29;20049;-81
2023/08/27 05:32:17;;;;;;;0.00;0.00;;;;;;;13.07;100.00;95951.88;4844332;29;20178;-81
2023/08/27 05:35:03;;;;;;;0.10;0.10;;;;;;;13.09;100.00;95943.53;4845242;29;20048;-81
2023/08/27 05:37:52;;;;;;;0.10;0.10;;;;;;;13.05;100.00;95937.88;4842479;29;20042;-81
2023/08/27 05:40:38;;;;;;;0.10;0.10;;;;;;;12.93;100.00;95944.69;4842970;29;20077;-81
2023/08/27 05:43:24;;;;;;;0.10;0.10;;;;;;;12.89;100.00;95932.88;4844592;29;20053;-83
2023/08/27 05:46:10;;;;;;;0.10;0.10;;;;;;;12.98;100.00;95934.69;4842401;29;20049;-83
2023/08/27 05:48:56;;;;;;;0.17;0.17;;;;;;;13.06;100.00;95941.38;4842907;29;20037;-82
2023/08/27 05:51:43;;;;;;;0.10;0.10;;;;;;;13.13;100.00;95928.44;4831022;29;20082;-82
2023/08/27 05:54:29;;;;;;;0.10;0.10;;;;;;;13.14;100.00;95931.94;4830993;29;20879;-83
2023/08/27 05:57:17;;;;;;;0.10;0.10;;;;;;;13.27;100.00;95931.34;4842899;29;20966;-83
2023/08/27 06:00:05;;;;;;;0.10;0.10;;;;;;;13.25;100.00;95938.91;4842004;29;20577;-82
2023/08/27 06:02:58;;;;;;;0.10;0.10;;;;;;;13.30;100.00;95941.53;4842558;29;20046;-82
2023/08/27 06:05:44;;;;;;;0.10;0.10;;;;;;;13.35;100.00;95922.72;4843524;29;20050;-83
2023/08/27 06:08:30;;;;;;;0.00;0.00;;;;;;;13.41;100.00;95921.59;4843954;29;20056;-83
2023/08/27 06:11:16;;;;;;;0.10;0.10;;;;;;;13.41;100.00;95918.91;4842892;29;20060;-82
2023/08/27 06:14:02;;;;;;;0.10;0.10;;;;;;;13.42;100.00;95928.56;4844783;29;20049;-83
2023/08/27 06:16:48;;;;;;;0.00;0.00;;;;;;;13.44;100.00;95921.03;4841925;29;20670;-82
2023/08/27 06:19:34;;;;;;;0.10;0.10;;;;;;;13.44;100.00;95922.91;4842227;29;20736;-84
2023/08/27 06:22:20;;;;;;;0.10;0.10;;;;;;;13.55;100.00;95927.16;4842872;29;20144;-82
2023/08/27 06:25:07;;;;;;;0.10;0.10;;;;;;;13.63;100.00;95913.91;4842897;29;20605;-81
2023/08/27 06:27:55;;;;;;;0.10;0.10;;;;;;;13.66;100.00;95917.91;4843572;29;20045;-84
2023/08/27 06:30:44;;;;;;;0.10;0.10;;;;;;;13.71;100.00;95930.53;4842619;29;20094;-82
2023/08/27 06:33:31;;;;;;;0.10;0.10;;;;;;;13.66;100.00;95924.09;4841608;29;20060;-83
2023/08/27 06:36:16;;;;;;;0.10;0.10;;;;;;;13.70;100.00;95923.56;4842214;29;21025;-83
2023/08/27 06:39:02;;;;;;;0.10;0.10;;;;;;;13.80;100.00;95934.22;4842884;29;20046;-82
2023/08/27 06:41:48;;;;;;;0.10;0.10;;;;;;;13.81;100.00;95946.56;4832300;29;20124;-82
2023/08/27 06:44:34;;;;;;;0.10;0.10;;;;;;;13.93;100.00;95949.72;4828558;29;20049;-82
2023/08/27 06:47:20;;;;;;;0.10;0.10;;;;;;;14.20;100.00;95951.88;4832927;29;20053;-81
2023/08/27 06:50:06;;;;;;;0.10;0.10;;;;;;;14.32;100.00;95956.88;4840574;29;20052;-82
2023/08/27 06:52:53;;;;;;;0.05;0.05;;;;;;;14.27;100.00;95962.34;4839511;29;20052;-83
2023/08/27 06:55:39;;;;;;;0.10;0.10;;;;;;;14.49;100.00;95971.56;4839698;29;20065;-82
2023/08/27 06:58:26;;;;;;;0.20;0.20;;;;;;;14.54;100.00;95957.22;4841514;29;20052;-82
2023/08/27 07:01:12;;;;;;;0.10;0.10;;;;;;;14.91;100.00;95948.47;4840674;29;20073;-82
2023/08/27 07:03:58;;;;;;;0.10;0.10;;;;;;;15.09;100.00;95949.59;4841420;29;20060;-82
2023/08/27 07:06:44;;;;;;;0.10;0.10;;;;;;;15.44;100.00;95955.59;4839521;29;20048;-81
2023/08/27 07:09:30;;;;;;;0.10;0.10;;;;;;;15.78;100.00;95941.91;4837766;29;20658;-82
2023/08/27 07:12:16;;;;;;;0.10;0.10;;;;;;;15.96;100.00;95948.38;4841702;29;20045;-83
2023/08/27 07:15:03;;;;;;;0.08;0.08;;;;;;;15.93;100.00;95962.44;4841961;29;20136;-83
2023/08/27 07:17:49;;;;;;;0.10;0.10;;;;;;;15.92;100.00;95960.84;4841666;29;20045;-82
2023/08/27 07:20:35;;;;;;;0.10;0.10;;;;;;;15.78;100.00;95968.88;4842157;29;20048;-82
2023/08/27 07:23:21;;;;;;;0.10;0.10;;;;;;;15.56;100.00;95967.56;4842542;29;20052;-82
2023/08/27 07:26:07;;;;;;;0.10;0.10;;;;;;;15.38;100.00;95970.25;4841997;29;20042;-84
2023/08/27 07:28:53;;;;;;;0.10;0.10;;;;;;;15.00;100.00;95949.44;4839096;29;20049;-82
2023/08/27 07:31:38;;;;;;;0.10;0.10;;;;;;;14.98;100.00;95956.19;4841133;29;20567;-82
2023/08/27 07:34:24;;;;;;;0.00;0.00;;;;;;;15.09;100.00;95956.88;4839395;29;20505;-83
2023/08/27 07:37:10;;;;;;;0.10;0.10;;;;;;;15.14;100.00;95968.41;4842522;29;20132;-82
2023/08/27 07:39:56;;;;;;;0.10;0.10;;;;;;;15.20;100.00;95969.94;4840220;29;20046;-81
2023/08/27 07:42:42;;;;;;;0.15;0.15;;;;;;;15.38;100.00;95960.25;4841376;29;20852;-81
2023/08/27 07:45:28;;;;;;;0.10;0.10;;;;;;;15.41;100.00;95965.09;4825901;29;20060;-82
2023/08/27 07:48:14;;;;;;;0.10;0.10;;;;;;;15.69;100.00;95976.84;4827897;29;20041;-82
2023/08/27 07:51:02;;;;;;;0.10;0.10;;;;;;;15.43;100.00;95981.75;4840359;29;20503;-82
2023/08/27 07:53:48;;;;;;;0.08;0.08;;;;;;;15.43;100.00;95983.66;4842151;29;20499;-81
2023/08/27 07:56:33;;;;;;;0.10;0.10;;;;;;;15.43;100.00;95978.28;4828092;29;20677;-82
2023/08/27 07:59:19;;;;;;;0.10;0.10;;;;;;;15.52;100.00;95971.13;4841627;29;20469;-82
2023/08/27 08:02:06;;;;;;;0.10;0.10;;;;;;;15.70;100.00;95956.84;4841323;29;20049;-82
2023/08/27 08:04:53;;;;;;;0.10;0.10;;;;;;;15.84;100.00;95971.22;4841174;29;20164;-81
2023/08/27 08:07:40;;;;;;;0.00;0.00;;;;;;;15.86;100.00;95958.22;4840216;29;20057;-80
2023/08/27 08:10:26;;;;;;;0.10;0.10;;;;;;;15.90;100.00;95960.34;4841288;29;20775;-82
2023/08/27 08:13:12;;;;;;;0.10;0.10;;;;;;;15.83;100.00;95968.81;4839870;29;20041;-81
2023/08/27 08:15:58;;;;;;;0.10;0.10;;;;;;;15.94;100.00;95966.75;4840608;29;20457;-81
2023/08/27 08:18:44;;;;;;;0.08;0.08;;;;;;;15.82;100.00;95972.59;4842481;29;20044;-82
2023/08/27 08:21:30;;;;;;;0.10;0.10;;;;;;;16.07;100.00;95971.41;4840882;29;20101;-82
2023/08/27 08:24:16;;;;;;;0.10;0.10;;;;;;;16.42;100.00;95978.13;4841252;29;20045;-82
2023/08/27 08:27:02;;;;;;;0.10;0.10;;;;;;;17.06;100.00;95970.19;4840910;29;20046;-83
2023/08/27 08:29:49;;;;;;;0.15;0.15;;;;;;;17.01;100.00;95968.38;4841361;29;20164;-82
2023/08/27 08:32:35;;;;;;;0.10;0.10;;;;;;;17.26;100.00;95972.44;4841242;29;20062;-82
2023/08/27 08:35:21;;;;;;;0.10;0.10;;;;;;;17.07;100.00;95960.97;4843102;29;20856;-81
2023/08/27 08:38:07;;;;;;;0.10;0.10;;;;;;;17.09;100.00;95964.16;4840769;29;20068;-82
2023/08/27 08:40:58;;;;;;;0.10;0.10;;;;;;;17.21;100.00;95950.94;4839514;29;20054;-82
2023/08/27 08:43:51;;;;;;;0.10;0.10;;;;;;;17.77;100.00;95947.81;4841836;29;20956;-83
2023/08/27 08:46:39;;;;;;;0.10;0.10;;;;;;;18.06;100.00;95960.94;4841527;29;20626;-82
2023/08/27 08:49:26;;;;;;;0.10;0.10;;;;;;;18.37;100.00;95973.72;4841850;29;20050;-83
2023/08/27 08:52:18;;;;;;;0.00;0.00;;;;;;;18.72;100.00;95961.19;4840407;29;20401;-81
2023/08/27 08:55:07;;;;;;;0.10;0.10;;;;;;;18.79;100.00;95972.38;4840220;29;20038;-82
2023/08/27 08:58:07;;;;;;;0.10;0.10;;;;;;;18.61;100.00;95968.75;4841750;29;20048;-81
2023/08/27 09:00:57;;;;;;;0.10;0.10;;;;;;;18.34;100.00;95975.13;4844248;29;20494;-81
2023/08/27 09:03:46;;;;;;;0.10;0.10;;;;;;;18.29;100.00;95969.06;4843381;29;20129;-82
2023/08/27 09:06:33;;;;;;;0.10;0.10;;;;;;;18.48;100.00;95971.56;4844817;29;20049;-81
2023/08/27 09:09:21;;;;;;;0.00;0.00;;;;;;;18.16;100.00;95962.59;4844961;29;20072;-82
2023/08/27 09:12:08;;;;;;;0.10;0.10;;;;;;;18.56;100.00;95951.84;4844787;29;20925;-81
2023/08/27 09:14:54;;;;;;;0.10;0.10;;;;;;;18.43;100.00;95958.94;4845009;29;20049;-81
2023/08/27 09:17:40;;;;;;;0.10;0.10;;;;;;;18.27;100.00;95955.00;4842541;29;20558;-82
2023/08/27 09:20:26;;;;;;;0.00;0.00;;;;;;;18.40;100.00;95950.63;4841498;29;20075;-83
2023/08/27 09:23:13;;;;;;;0.10;0.10;;;;;;;18.45;100.00;95970.28;4842804;29;20065;-82
2023/08/27 09:25:59;;;;;;;0.10;0.10;;;;;;;18.46;100.00;95963.75;4844749;29;20049;-82
2023/08/27 09:28:45;;;;;;;0.10;0.10;;;;;;;18.31;100.00;95953.28;4844031;29;20037;-82
2023/08/27 09:31:42;;;;;;;0.10;0.10;;;;;;;18.43;100.00;95960.84;4845416;29;20412;-81
2023/08/27 09:34:28;;;;;;;0.10;0.10;;;;;;;18.35;100.00;95967.81;4841565;29;20045;-83
2023/08/27 09:37:14;;;;;;;0.10;0.10;;;;;;;18.55;100.00;95956.44;4844674;29;20059;-82
2023/08/27 09:40:01;;;;;;;0.10;0.10;;;;;;;18.81;100.00;95959.31;4844872;29;20113;-82
2023/08/27 09:42:46;;;;;;;0.10;0.10;;;;;;;19.23;100.00;95951.63;4844774;29;20050;-82
2023/08/27 09:45:36;;;;;;;0.10;0.10;;;;;;;19.64;100.00;95948.53;4844063;29;20129;-82
2023/08/27 09:48:23;;;;;;;0.10;0.10;;;;;;;19.88;100.00;95939.91;4843075;29;20061;-83
2023/08/27 09:51:09;;;;;;;0.10;0.10;;;;;;;19.73;100.00;95938.47;4844763;29;20046;-83
2023/08/27 09:53:55;;;;;;;0.10;0.10;;;;;;;19.96;100.00;95944.53;4842730;29;20611;-83
2023/08/27 09:56:47;;;;;;;0.10;0.10;;;;;;;20.09;100.00;95933.84;4842482;29;20061;-82
2023/08/27 09:59:42;;;;;;;0.05;0.05;;;;;;;20.41;100.00;95932.50;4842154;29;20057;-82
2023/08/27 10:02:28;;;;;;;0.20;0.20;;;;;;;20.35;100.00;95928.34;4842526;29;20108;-83
2023/08/27 10:05:14;;;;;;;0.10;0.10;;;;;;;20.45;100.00;95914.44;4842980;29;20690;-82
2023/08/27 10:08:02;;;;;;;0.20;0.20;;;;;;;20.52;100.00;95923.69;4841076;29;20480;-83
2023/08/27 10:10:48;;;;;;;0.10;0.10;;;;;;;20.51;100.00;95919.38;4843091;29;20173;-82
2023/08/27 10:13:36;;;;;;;0.10;0.10;;;;;;;21.03;100.00;95915.66;4844690;29;20068;-82
2023/08/27 10:16:22;;;;;;;0.10;0.10;;;;;;;21.24;100.00;95927.34;4843866;29;20059;-82
2023/08/27 10:19:09;;;;;;;0.10;0.10;;;;;;;21.16;100.00;95933.63;4842211;29;20058;-82
2023/08/27 10:21:55;;;;;;;0.10;0.10;;;;;;;20.98;100.00;95924.78;4843068;29;20038;-82
2023/08/27 10:24:42;;;;;;;0.10;0.10;;;;;;;20.46;100.00;95916.03;4842216;29;20503;-83
2023/08/27 10:27:31;;;;;;;0.00;0.00;;;;;;;20.42;100.00;95915.84;4843654;29;20046;-82
2023/08/27 10:30:18;;;;;;;0.10;0.10;;;;;;;20.31;100.00;95911.88;4841820;29;20060;-83
2023/08/27 10:33:04;;;;;;;0.10;0.10;;;;;;;20.09;100.00;95923.75;4842070;29;20061;-81
2023/08/27 10:35:52;;;;;;;0.00;0.00;;;;;;;20.05;100.00;95925.50;4845432;29;20666;-82
2023/08/27 10:38:40;;;;;;;0.10;0.10;;;;;;;19.78;100.00;95926.66;4851411;29;20134;-82
2023/08/27 10:41:27;;;;;;;0.10;0.10;;;;;;;19.75;100.00;95919.94;4857259;29;20045;-82
2023/08/27 10:44:19;;;;;;;0.10;0.10;;;;;;;19.84;100.00;95917.22;4849463;29;20041;-83
2023/08/27 10:47:14;;;;;;;0.10;0.10;;;;;;;19.71;100.00;95918.22;4842628;29;20609;-82
2023/08/27 10:50:00;;;;;;;0.10;0.10;;;;;;;19.43;100.00;95917.66;4841005;29;20687;-82
2023/08/27 10:52:52;;;;;;;0.10;0.10;;;;;;;19.39;100.00;95924.88;4843172;29;20053;-83
2023/08/27 10:55:48;;;;;;;0.10;0.10;;;;;;;19.49;100.00;95921.84;4842658;29;20140;-83
2023/08/27 10:58:41;;;;;;;0.10;0.10;;;;;;;19.48;100.00;95912.09;4841961;29;20443;-80
2023/08/27 11:01:27;;;;;;;0.10;0.10;;;;;;;19.90;100.00;95921.38;4841800;29;20193;-81
2023/08/27 11:04:17;;;;;;;0.15;0.15;;;;;;;21.22;100.00;95910.56;4841601;29;20149;-81
2023/08/27 11:07:14;;;;;;;0.10;0.10;;;;;;;22.78;100.00;95917.38;4843725;29;20459;-82
2023/08/27 11:10:03;;;;;;;0.10;0.10;;;;;;;23.12;98.64;95915.38;4843236;29;20047;-82
2023/08/27 11:12:48;;;;;;;0.10;0.10;;;;;;;22.53;100.00;95925.50;4841898;29;20041;-81
2023/08/27 11:15:39;;;;;;;0.00;0.00;;;;;;;22.17;100.00;95928.91;4843516;29;20049;-81
2023/08/27 11:18:25;;;;;;;;;;;;;;;23.02;97.19;95935.72;4843460;29;20096;-82
2023/08/27 11:21:44;;;;;;;0.10;0.10;;;;;;;22.45;98.81;95931.84;4837975;29;19988;-82
2023/08/27 11:24:30;;;;;;;0.10;0.10;;;;;;;22.93;98.85;95922.19;4842571;29;20068;-82
2023/08/27 11:27:17;;;;;;;0.10;0.10;;;;;;;23.71;93.92;95920.31;4843231;29;20041;-82
2023/08/27 11:30:06;;;;;;;0.10;0.10;;;;;;;23.43;94.74;95912.84;4842016;29;20875;-82
2023/08/27 11:32:53;;;;;;;0.10;0.10;;;;;;;24.09;93.23;95909.69;4827345;29;20137;-82
2023/08/27 11:35:42;;;;;;;0.10;0.10;;;;;;;24.08;91.84;95919.03;4840798;29;20113;-81
2023/08/27 11:38:28;;;;;;;0.10;0.10;;;;;;;24.35;88.93;95922.91;4842185;29;20058;-82
2023/08/27 11:41:13;;;;;;;0.10;0.10;;;;;;;23.56;93.79;95919.06;4840979;29;20073;-83
2023/08/27 11:43:59;;;;;;;0.10;0.10;;;;;;;23.71;91.93;95914.84;4841961;29;20060;-83
2023/08/27 11:46:46;;;;;;;0.08;0.08;;;;;;;23.43;92.77;95910.13;4842451;29;20064;-81
2023/08/27 11:49:33;;;;;;;0.10;0.10;;;;;;;23.63;92.75;95917.34;4842342;29;20072;-83
2023/08/27 11:52:18;;;;;;;0.10;0.10;;;;;;;22.89;95.50;95917.75;4840845;29;20116;-81
2023/08/27 11:55:05;;;;;;;0.10;0.10;;;;;;;22.41;98.14;95911.03;4842193;29;20048;-83
2023/08/27 11:57:52;;;;;;;0.10;0.10;;;;;;;23.21;94.65;95914.13;4826893;29;20132;-82
2023/08/27 12:00:42;;;;;;;0.10;0.10;;;;;;;22.89;93.20;95904.13;4841005;29;20053;-81
2023/08/27 12:03:28;;;;;;;0.10;0.10;;;;;;;24.30;84.07;95898.56;4840660;29;20052;-83
2023/08/27 12:06:19;;;;;;;0.10;0.10;;;;;;;23.33;91.46;95894.97;4843134;29;20056;-81
2023/08/27 12:09:05;;;;;;;0.10;0.10;;;;;;;23.84;91.86;95900.00;4842614;29;20106;-82
2023/08/27 12:11:50;;;;;;;0.10;0.10;;;;;;;24.19;90.16;95895.53;4842328;29;20077;-82
2023/08/27 12:14:37;;;;;;;0.20;0.20;;;;;;;24.62;84.06;95888.47;4841168;29;20500;-82
2023/08/27 12:17:23;;;;;;;0.20;0.20;;;;;;;26.90;73.34;95879.56;4840532;29;20100;-81
2023/08/27 12:20:10;;;;;;;0.20;0.20;;;;;;;29.47;53.24;95863.25;4842538;29;20074;-82
2023/08/27 12:22:58;;;;;;;0.10;0.10;;;;;;;28.58;51.50;95871.59;4843443;29;20045;-82
2023/08/27 12:25:48;;;;;;;0.10;0.10;;;;;;;29.53;50.83;95867.25;4841605;29;20093;-83
2023/08/27 12:28:34;;;;;;;0.10;0.10;;;;;;;29.68;49.59;95865.38;4841016;29;20037;-82
2023/08/27 12:31:24;;;;;;;0.10;0.10;;;;;;;28.73;54.62;95857.97;4842554;29;20804;-81
2023/08/27 12:34:10;;;;;;;0.10;0.10;;;;;;;27.91;49.96;95874.38;4845550;29;20045;-82
2023/08/27 12:36:56;;;;;;;0.00;0.00;;;;;;;26.61;54.05;95877.50;4843770;29;20045;-83
2023/08/27 12:39:42;;;;;;;0.00;0.00;;;;;;;25.42;70.11;95889.22;4843161;29;20485;-83
2023/08/27 12:42:28;;;;;;;0.10;0.10;;;;;;;25.25;79.58;95877.50;4845219;29;20049;-83
2023/08/27 12:45:13;;;;;;;0.00;0.00;;;;;;;26.93;65.60;95875.31;4845272;29;20052;-82
2023/08/27 12:48:07;;;;;;;0.00;0.00;;;;;;;25.14;78.19;95876.47;4845094;29;20049;-81
2023/08/27 12:50:52;;;;;;;0.10;0.10;;;;;;;23.94;80.82;95880.38;4844222;29;20695;-83
2023/08/27 12:53:38;;;;;;;0.10;0.10;;;;;;;23.74;87.36;95895.06;4844448;29;20058;-82
2023/08/27 12:56:24;;;;;;;0.00;0.00;;;;;;;23.61;87.64;95888.81;4842309;29;20798;-81
2023/08/27 12:59:10;;;;;;;0.08;0.08;;;;;;;23.72;89.51;95887.19;4843678;29;20657;-82